Time;durP1;ratioP1;P1;durP2;ratioP2;P2;SDS_P1;SDS_P2;PMS_P1;PMS_P2;Temp;Humidity;BMP_temperature;BMP_pressure;BME280_temperature;BME280_humidity;BME280_pressure;Samples;Min_cycle;Max_cycle;Signal;HPM_P1;HPM_P2
2021/08/15 00:00:01;;;;;;;36.47;34.20;;;22.90;82.90;;;;;;5089108;28;20532;-70
2021/08/15 00:02:29;;;;;;;37.40;35.00;;;22.90;83.00;;;;;;5078726;28;20482;-71
2021/08/15 00:04:56;;;;;;;36.80;34.50;;;22.90;82.90;;;;;;5090031;28;21015;-71
2021/08/15 00:07:24;;;;;;;36.87;34.43;;;22.90;82.90;;;;;;5088455;28;20567;-71
2021/08/15 00:09:51;;;;;;;35.93;33.80;;;22.80;83.00;;;;;;5090063;28;20453;-70
2021/08/15 00:12:18;;;;;;;37.03;34.30;;;22.80;83.00;;;;;;5080343;28;20453;-71
2021/08/15 00:14:45;;;;;;;35.67;33.57;;;22.80;83.10;;;;;;5084255;28;20454;-71
2021/08/15 00:17:12;;;;;;;38.17;35.63;;;22.80;83.00;;;;;;5084420;28;20465;-72
2021/08/15 00:19:39;;;;;;;36.40;33.87;;;22.70;83.10;;;;;;5082892;28;21010;-72
2021/08/15 00:22:07;;;;;;;36.37;33.90;;;22.80;83.00;;;;;;5081553;28;20477;-72
2021/08/15 00:24:36;;;;;;;35.30;32.83;;;22.70;83.00;;;;;;5072701;28;20987;-72
2021/08/15 00:27:03;;;;;;;36.37;33.83;;;22.70;83.00;;;;;;5080261;28;20473;-72
2021/08/15 00:29:30;;;;;;;36.80;33.80;;;22.70;83.10;;;;;;5078492;28;20463;-72
2021/08/15 00:31:57;;;;;;;35.40;33.00;;;22.60;83.30;;;;;;5081828;28;20454;-72
2021/08/15 00:34:24;;;;;;;34.67;32.57;;;22.60;83.40;;;;;;5086143;28;20522;-72
2021/08/15 00:36:51;;;;;;;38.97;36.37;;;22.50;83.40;;;;;;5085805;28;21128;-72
2021/08/15 00:39:18;;;;;;;35.60;33.13;;;22.50;83.50;;;;;;5090292;28;20475;-72
2021/08/15 00:41:46;;;;;;;35.47;33.37;;;22.50;83.80;;;;;;5082994;28;20468;-72
2021/08/15 00:44:13;;;;;;;34.50;32.40;;;22.50;83.50;;;;;;5084960;28;20470;-72
2021/08/15 00:46:43;;;;;;;35.27;32.97;;;22.40;83.70;;;;;;5080142;28;20454;-72
2021/08/15 00:49:10;;;;;;;36.00;33.60;;;22.40;83.60;;;;;;5077464;28;20450;-72
2021/08/15 00:51:37;;;;;;;36.90;34.40;;;22.50;83.40;;;;;;5084900;28;20541;-72
2021/08/15 00:54:04;;;;;;;36.20;33.90;;;22.40;83.70;;;;;;5073471;28;20812;-72
2021/08/15 00:56:31;;;;;;;35.60;33.40;;;22.30;84.10;;;;;;5088357;28;20976;-72
2021/08/15 00:59:00;;;;;;;37.17;34.77;;;22.20;84.30;;;;;;5088699;28;20453;-72
2021/08/15 01:01:27;;;;;;;34.90;32.37;;;22.30;84.30;;;;;;5084034;28;20463;-72
2021/08/15 01:03:54;;;;;;;36.00;33.70;;;22.20;84.30;;;;;;5072254;28;20557;-72
2021/08/15 01:06:21;;;;;;;35.57;33.37;;;22.20;84.20;;;;;;5075789;28;20603;-72
2021/08/15 01:08:47;;;;;;;35.07;32.47;;;22.20;84.50;;;;;;5078788;28;20495;-72
2021/08/15 01:11:14;;;;;;;34.80;32.60;;;22.10;84.60;;;;;;5087616;28;20457;-72
2021/08/15 01:13:41;;;;;;;35.63;33.40;;;22.10;84.50;;;;;;5079680;28;20532;-72
2021/08/15 01:16:11;;;;;;;35.20;33.10;;;22.10;84.50;;;;;;5076649;28;20468;-72
2021/08/15 01:18:39;;;;;;;35.40;33.10;;;22.10;84.50;;;;;;5078325;28;20470;-72
2021/08/15 01:21:08;;;;;;;35.90;33.70;;;22.10;84.50;;;;;;5083319;28;20548;-72
2021/08/15 01:23:39;;;;;;;35.53;33.30;;;22.10;84.40;;;;;;5080407;28;20477;-72
2021/08/15 01:26:07;;;;;;;35.90;33.43;;;22.10;84.20;;;;;;5084345;28;20539;-72
2021/08/15 01:28:35;;;;;;;35.17;32.97;;;22.00;84.20;;;;;;5075682;28;20561;-72
2021/08/15 01:31:03;;;;;;;35.30;33.00;;;22.00;84.30;;;;;;5083604;28;20468;-72
2021/08/15 01:33:31;;;;;;;35.90;33.60;;;22.00;84.40;;;;;;5085891;28;20453;-72
2021/08/15 01:35:59;;;;;;;35.20;32.63;;;21.90;84.70;;;;;;5086380;28;20553;-72
2021/08/15 01:38:28;;;;;;;34.70;32.40;;;21.90;85.00;;;;;;5089390;28;20495;-72
2021/08/15 01:40:56;;;;;;;36.90;34.57;;;21.80;84.90;;;;;;5087355;28;20459;-72
2021/08/15 01:43:23;;;;;;;36.00;33.70;;;21.80;85.00;;;;;;5080077;28;20469;-72
2021/08/15 01:45:51;;;;;;;35.47;33.20;;;21.80;85.00;;;;;;5070563;28;20572;-72
2021/08/15 01:48:18;;;;;;;34.90;32.60;;;21.80;84.90;;;;;;5087641;28;20480;-72
2021/08/15 01:50:45;;;;;;;35.23;32.80;;;21.80;85.00;;;;;;5077335;28;20439;-72
2021/08/15 01:53:15;;;;;;;35.10;32.80;;;21.70;85.40;;;;;;5083261;28;20448;-72
2021/08/15 01:55:43;;;;;;;35.63;33.10;;;21.60;85.60;;;;;;5090975;28;20547;-72
2021/08/15 01:58:11;;;;;;;34.00;31.70;;;21.50;86.00;;;;;;5092875;28;20468;-72
2021/08/15 02:00:39;;;;;;;34.37;32.27;;;21.50;86.20;;;;;;5090900;28;20457;-72
2021/08/15 02:03:08;;;;;;;33.83;31.60;;;21.40;86.10;;;;;;5090817;28;20511;-72
2021/08/15 02:05:35;;;;;;;33.90;31.70;;;21.40;86.40;;;;;;5083562;28;20561;-72
2021/08/15 02:08:04;;;;;;;33.70;31.50;;;21.40;86.30;;;;;;5092048;28;20947;-72
2021/08/15 02:10:31;;;;;;;33.90;31.70;;;21.40;86.40;;;;;;5083003;28;20457;-72
2021/08/15 02:13:00;;;;;;;34.47;32.13;;;21.40;86.30;;;;;;5083656;28;20984;-72
2021/08/15 02:15:27;;;;;;;34.80;32.50;;;21.40;86.40;;;;;;5091584;28;20819;-71
2021/08/15 02:17:55;;;;;;;33.57;31.57;;;21.40;86.30;;;;;;5090897;28;21021;-71
2021/08/15 02:20:23;;;;;;;33.43;31.23;;;21.30;86.40;;;;;;5081575;28;20481;-71
2021/08/15 02:22:50;;;;;;;33.97;31.87;;;21.30;86.40;;;;;;5089871;28;20504;-71
2021/08/15 02:25:19;;;;;;;34.63;32.20;;;21.30;86.50;;;;;;5082771;28;20809;-71
2021/08/15 02:27:46;;;;;;;35.13;32.80;;;21.30;86.40;;;;;;5090511;28;20469;-72
2021/08/15 02:30:15;;;;;;;33.20;31.10;;;21.30;86.40;;;;;;5091483;28;20548;-72
2021/08/15 02:32:43;;;;;;;33.80;31.77;;;21.30;86.50;;;;;;5088887;28;20453;-72
2021/08/15 02:35:13;;;;;;;33.63;31.53;;;21.30;86.40;;;;;;5091863;28;20952;-71
2021/08/15 02:37:43;;;;;;;37.93;35.70;;;21.30;86.20;;;;;;5090313;28;20472;-72
2021/08/15 02:40:12;;;;;;;34.53;32.23;;;21.30;86.30;;;;;;5087697;28;20475;-72
2021/08/15 02:42:41;;;;;;;34.90;32.53;;;21.30;86.40;;;;;;5076063;28;20470;-72
2021/08/15 02:45:11;;;;;;;34.57;32.47;;;21.10;86.70;;;;;;5084726;28;20947;-72
2021/08/15 02:47:38;;;;;;;35.10;32.80;;;21.10;86.80;;;;;;5089161;28;20481;-72
2021/08/15 02:50:06;;;;;;;33.67;31.47;;;21.10;86.80;;;;;;5078923;28;21065;-72
2021/08/15 02:52:33;;;;;;;34.63;32.10;;;21.00;86.90;;;;;;5075712;28;20465;-72
2021/08/15 02:55:02;;;;;;;34.83;32.53;;;21.00;86.90;;;;;;5083829;28;20500;-72
2021/08/15 02:57:29;;;;;;;35.00;32.73;;;21.00;87.00;;;;;;5083225;28;20477;-72
2021/08/15 02:59:55;;;;;;;34.90;32.57;;;21.00;86.90;;;;;;5088016;28;20464;-71
2021/08/15 03:02:23;;;;;;;32.53;30.43;;;21.00;86.90;;;;;;5087841;28;20946;-71
2021/08/15 03:04:50;;;;;;;33.87;31.67;;;21.00;87.10;;;;;;5073561;28;20469;-72
2021/08/15 03:07:18;;;;;;;38.17;35.67;;;20.90;87.20;;;;;;5090015;28;20508;-72
2021/08/15 03:09:46;;;;;;;35.47;33.37;;;20.90;87.30;;;;;;5082985;28;20449;-71
2021/08/15 03:12:14;;;;;;;33.77;31.57;;;20.90;87.40;;;;;;5088601;28;20457;-71
2021/08/15 03:14:41;;;;;;;34.13;31.90;;;20.90;87.70;;;;;;5072972;28;20450;-72
2021/08/15 03:17:09;;;;;;;33.50;31.27;;;20.90;87.50;;;;;;5089258;28;20469;-72
2021/08/15 03:19:36;;;;;;;33.30;31.20;;;20.90;87.40;;;;;;5084128;28;20465;-71
2021/08/15 03:22:04;;;;;;;32.10;30.10;;;20.80;87.70;;;;;;5088244;28;20498;-72
2021/08/15 03:24:31;;;;;;;34.17;31.97;;;20.70;87.90;;;;;;5072840;28;20474;-72
2021/08/15 03:26:58;;;;;;;34.60;32.40;;;20.70;87.90;;;;;;5088470;28;20994;-72
2021/08/15 03:29:26;;;;;;;34.73;32.50;;;20.80;87.80;;;;;;5078948;28;20450;-72
2021/08/15 03:31:54;;;;;;;34.13;31.83;;;20.80;87.70;;;;;;5084183;28;20462;-72
2021/08/15 03:34:21;;;;;;;34.13;31.93;;;20.80;87.60;;;;;;5081526;28;20457;-72
2021/08/15 03:36:48;;;;;;;34.63;32.07;;;20.80;87.60;;;;;;5089673;28;20559;-72
2021/08/15 03:39:16;;;;;;;33.60;31.27;;;20.80;87.70;;;;;;5084373;28;20458;-72
2021/08/15 03:41:43;;;;;;;33.40;31.20;;;20.80;87.60;;;;;;5080054;28;20453;-72
2021/08/15 03:44:10;;;;;;;35.03;32.83;;;20.70;87.50;;;;;;5079613;28;20858;-72
2021/08/15 03:46:40;;;;;;;32.53;30.43;;;20.60;87.80;;;;;;5082204;28;20502;-72
2021/08/15 03:49:07;;;;;;;31.50;29.50;;;20.50;87.90;;;;;;5073497;28;20474;-71
2021/08/15 03:51:34;;;;;;;31.30;29.30;;;20.50;88.30;;;;;;5073052;28;20458;-72
2021/08/15 03:54:01;;;;;;;34.43;32.10;;;20.40;88.50;;;;;;5074901;28;20877;-72
2021/08/15 03:56:29;;;;;;;32.23;29.90;;;20.50;88.50;;;;;;5087197;28;20952;-72
2021/08/15 03:58:56;;;;;;;32.13;30.00;;;20.50;88.30;;;;;;5083378;28;20868;-72
2021/08/15 04:01:23;;;;;;;31.70;29.80;;;20.60;88.10;;;;;;5081846;28;20540;-72
2021/08/15 04:03:51;;;;;;;33.33;31.13;;;20.50;87.90;;;;;;5079907;28;20571;-72
2021/08/15 04:06:22;;;;;;;35.40;33.20;;;20.50;87.70;;;;;;5080009;28;21085;-72
2021/08/15 04:08:49;;;;;;;33.00;31.00;;;20.50;87.70;;;;;;5081399;28;20473;-72
2021/08/15 04:11:17;;;;;;;32.40;30.23;;;20.50;87.70;;;;;;5081263;28;20457;-72
2021/08/15 04:13:44;;;;;;;32.33;30.20;;;20.60;87.40;;;;;;5086303;28;20441;-72
2021/08/15 04:16:11;;;;;;;31.90;29.73;;;20.50;87.40;;;;;;5083703;28;20449;-71
2021/08/15 04:18:38;;;;;;;33.30;30.90;;;20.50;87.50;;;;;;5085610;28;20483;-72
2021/08/15 04:21:06;;;;;;;34.23;31.60;;;20.50;87.40;;;;;;5080703;28;20822;-71
2021/08/15 04:23:33;;;;;;;32.17;30.17;;;20.50;87.40;;;;;;5077317;28;20481;-72
2021/08/15 04:26:00;;;;;;;30.67;28.70;;;20.50;87.50;;;;;;5081327;28;20911;-72
2021/08/15 04:28:27;;;;;;;32.77;30.70;;;20.40;87.70;;;;;;5089101;28;20535;-72
2021/08/15 04:30:54;;;;;;;34.67;32.47;;;20.40;87.80;;;;;;5088322;28;20463;-72
2021/08/15 04:33:24;;;;;;;32.23;30.13;;;20.40;88.10;;;;;;5080012;28;20452;-71
2021/08/15 04:35:51;;;;;;;33.87;31.73;;;20.40;88.00;;;;;;5080116;28;20480;-71
2021/08/15 04:38:20;;;;;;;32.17;30.17;;;20.40;88.00;;;;;;5085000;28;20477;-71
2021/08/15 04:40:48;;;;;;;31.23;29.33;;;20.50;87.90;;;;;;5087607;28;20570;-70
2021/08/15 04:43:15;;;;;;;32.17;30.00;;;20.50;87.80;;;;;;5080725;28;20498;-71
2021/08/15 04:45:42;;;;;;;30.87;28.63;;;20.50;87.80;;;;;;5070738;28;20501;-70
2021/08/15 04:48:09;;;;;;;30.87;28.87;;;20.50;87.90;;;;;;5085618;28;20506;-70
2021/08/15 04:50:36;;;;;;;31.17;29.27;;;20.50;87.80;;;;;;5070279;28;20875;-70
2021/08/15 04:53:03;;;;;;;31.30;29.20;;;20.60;87.60;;;;;;5088309;28;20480;-71
2021/08/15 04:55:31;;;;;;;31.87;29.77;;;20.70;87.50;;;;;;5088010;28;20461;-70
2021/08/15 04:57:59;;;;;;;32.20;30.00;;;20.70;87.30;;;;;;5084852;28;20478;-71
2021/08/15 05:00:26;;;;;;;31.53;29.53;;;20.80;87.20;;;;;;5086498;28;20472;-71
2021/08/15 05:02:53;;;;;;;30.97;28.93;;;20.90;86.80;;;;;;5081208;28;20944;-70
2021/08/15 05:05:20;;;;;;;32.60;30.20;;;21.00;86.50;;;;;;5081268;28;20486;-70
2021/08/15 05:07:49;;;;;;;33.00;30.90;;;21.00;86.30;;;;;;5085070;28;20495;-71
2021/08/15 05:10:16;;;;;;;31.73;29.63;;;21.10;86.30;;;;;;5089430;28;20951;-74
2021/08/15 05:12:44;;;;;;;33.20;30.93;;;21.10;85.90;;;;;;5084250;28;20458;-70
2021/08/15 05:15:12;;;;;;;31.43;29.33;;;21.30;85.60;;;;;;5078535;28;20450;-70
2021/08/15 05:17:39;;;;;;;31.37;29.37;;;21.30;85.30;;;;;;5084019;28;20561;-71
2021/08/15 05:20:07;;;;;;;33.00;30.80;;;21.40;85.20;;;;;;5079434;28;20568;-70
2021/08/15 05:22:34;;;;;;;33.03;30.90;;;21.40;85.00;;;;;;5084209;28;20994;-70
2021/08/15 05:25:01;;;;;;;33.17;31.00;;;21.60;84.80;;;;;;5081529;28;20480;-71
2021/08/15 05:27:28;;;;;;;34.27;31.97;;;21.60;84.50;;;;;;5081052;28;20473;-71
2021/08/15 05:29:56;;;;;;;33.53;31.23;;;21.60;84.70;;;;;;5093179;28;20453;-71
2021/08/15 05:32:23;;;;;;;35.80;33.30;;;21.70;84.50;;;;;;5079886;28;20452;-70
2021/08/15 05:34:50;;;;;;;34.27;31.77;;;21.80;84.20;;;;;;5089244;28;20465;-71
2021/08/15 05:37:17;;;;;;;32.83;30.73;;;21.90;84.00;;;;;;5082369;28;20498;-70
2021/08/15 05:39:43;;;;;;;33.17;31.07;;;22.00;83.50;;;;;;5092632;28;20449;-71
2021/08/15 05:42:10;;;;;;;34.27;31.67;;;22.10;83.40;;;;;;5090686;28;20463;-70
2021/08/15 05:44:37;;;;;;;34.27;31.97;;;22.10;83.40;;;;;;5082958;28;20493;-70
2021/08/15 05:47:08;;;;;;;33.80;31.40;;;22.20;83.20;;;;;;5091940;28;20557;-71
2021/08/15 05:49:35;;;;;;;34.37;31.67;;;22.40;82.80;;;;;;5086699;28;20551;-71
2021/08/15 05:52:01;;;;;;;33.97;31.77;;;22.40;82.50;;;;;;5091797;28;20966;-70
2021/08/15 05:54:28;;;;;;;35.77;33.37;;;22.40;82.40;;;;;;5092289;28;20533;-71
2021/08/15 05:56:55;;;;;;;37.67;35.10;;;22.50;82.40;;;;;;5086477;28;20468;-70
2021/08/15 05:59:22;;;;;;;36.50;34.03;;;22.70;81.90;;;;;;5087880;28;20533;-71
2021/08/15 06:01:52;;;;;;;34.20;32.00;;;22.80;81.70;;;;;;5085675;28;20939;-70
2021/08/15 06:04:20;;;;;;;37.93;35.23;;;22.80;81.80;;;;;;5074124;28;20466;-71
2021/08/15 06:06:47;;;;;;;36.87;34.53;;;22.90;81.30;;;;;;5085412;28;20567;-71
2021/08/15 06:09:14;;;;;;;35.90;33.63;;;22.90;81.20;;;;;;5083048;28;20468;-70
2021/08/15 06:11:41;;;;;;;39.20;36.60;;;22.90;81.20;;;;;;5081935;28;20464;-70
2021/08/15 06:14:08;;;;;;;36.37;33.90;;;23.00;80.90;;;;;;5089123;28;20453;-70
2021/08/15 06:16:35;;;;;;;38.23;35.63;;;23.00;81.10;;;;;;5089741;28;20453;-71
2021/08/15 06:19:02;;;;;;;39.40;36.50;;;23.10;80.90;;;;;;5091146;28;20461;-72
2021/08/15 06:21:30;;;;;;;36.90;34.70;;;23.20;80.70;;;;;;5090941;28;20455;-72
2021/08/15 06:23:57;;;;;;;38.20;35.50;;;23.30;80.10;;;;;;5091180;28;20473;-72
2021/08/15 06:26:24;;;;;;;39.30;36.90;;;23.40;79.50;;;;;;5090993;28;20544;-72
2021/08/15 06:28:52;;;;;;;40.53;38.03;;;23.50;79.40;;;;;;5091499;28;20952;-71
2021/08/15 06:31:19;;;;;;;40.73;38.00;;;23.60;79.20;;;;;;5082493;28;20453;-71
2021/08/15 06:33:46;;;;;;;42.00;39.27;;;23.70;78.70;;;;;;5082430;28;20537;-71
2021/08/15 06:36:13;;;;;;;37.80;35.40;;;23.80;78.30;;;;;;5090386;28;20453;-70
2021/08/15 06:38:41;;;;;;;40.03;37.27;;;23.90;78.10;;;;;;5088372;28;20567;-70
2021/08/15 06:41:08;;;;;;;39.27;36.80;;;23.90;77.70;;;;;;5083435;28;20473;-71
2021/08/15 06:43:35;;;;;;;37.50;35.10;;;24.00;77.40;;;;;;5091020;28;20492;-70
2021/08/15 06:46:02;;;;;;;39.53;36.93;;;24.10;77.10;;;;;;5080379;28;20453;-71
2021/08/15 06:48:29;;;;;;;39.50;36.90;;;24.20;76.80;;;;;;5087412;28;20829;-72
2021/08/15 06:50:58;;;;;;;38.63;35.93;;;24.30;76.30;;;;;;5080358;28;21251;-72
2021/08/15 06:53:25;;;;;;;39.90;37.17;;;24.30;76.30;;;;;;5086027;28;20478;-72
2021/08/15 06:55:54;;;;;;;42.53;39.20;;;24.30;75.90;;;;;;5081379;28;20556;-72
2021/08/15 06:58:21;;;;;;;38.07;35.30;;;24.40;75.40;;;;;;5087338;28;20544;-72
2021/08/15 07:00:48;;;;;;;38.70;36.30;;;24.30;75.80;;;;;;5086163;28;20815;-72
2021/08/15 07:03:15;;;;;;;38.33;35.93;;;24.40;75.60;;;;;;5075478;28;20445;-73
2021/08/15 07:05:42;;;;;;;38.60;36.10;;;24.50;74.80;;;;;;5086842;28;20469;-73
2021/08/15 07:08:09;;;;;;;39.20;36.70;;;24.60;74.20;;;;;;5090703;28;20481;-72
2021/08/15 07:10:35;;;;;;;37.97;35.37;;;24.70;73.60;;;;;;5077116;28;20560;-73
2021/08/15 07:13:06;;;;;;;38.43;35.97;;;24.80;73.00;;;;;;5086086;28;20464;-75
2021/08/15 07:15:33;;;;;;;39.00;36.50;;;24.80;73.00;;;;;;5086130;28;20878;-72
2021/08/15 07:18:01;;;;;;;39.43;36.90;;;24.90;72.80;;;;;;5090454;28;20472;-72
2021/08/15 07:20:28;;;;;;;40.77;37.93;;;25.00;72.30;;;;;;5082941;28;20449;-73
2021/08/15 07:22:56;;;;;;;41.00;38.07;;;25.10;72.30;;;;;;5089750;28;20528;-73
2021/08/15 07:25:24;;;;;;;41.60;38.90;;;25.20;72.00;;;;;;5088337;28;20473;-73
2021/08/15 07:27:52;;;;;;;42.90;40.03;;;25.40;72.10;;;;;;5083372;28;20517;-73
2021/08/15 07:30:20;;;;;;;42.90;39.97;;;25.30;71.60;;;;;;5081160;28;20958;-72
2021/08/15 07:32:51;;;;;;;40.07;37.57;;;25.30;71.90;;;;;;5085885;28;20453;-73
2021/08/15 07:35:18;;;;;;;43.03;40.23;;;25.30;72.30;;;;;;5084434;28;20532;-73
2021/08/15 07:37:45;;;;;;;41.20;38.40;;;25.40;72.90;;;;;;5084362;28;20477;-74
2021/08/15 07:40:12;;;;;;;41.83;38.87;;;25.50;72.80;;;;;;5082475;28;20547;-73
2021/08/15 07:42:40;;;;;;;42.60;39.80;;;25.60;73.00;;;;;;5089258;28;20942;-75
2021/08/15 07:45:08;;;;;;;44.60;41.23;;;25.70;73.20;;;;;;5079140;28;20481;-73
2021/08/15 07:47:36;;;;;;;43.10;40.17;;;25.60;73.40;;;;;;5082629;28;20478;-72
2021/08/15 07:50:03;;;;;;;42.97;39.90;;;25.50;73.60;;;;;;5080066;28;20489;-72
2021/08/15 07:52:30;;;;;;;43.13;40.23;;;25.40;74.00;;;;;;5086353;28;20960;-74
2021/08/15 07:54:57;;;;;;;45.43;42.53;;;25.40;74.10;;;;;;5080785;28;20455;-73
2021/08/15 07:57:26;;;;;;;44.50;41.43;;;25.30;74.50;;;;;;5078479;28;20472;-73
2021/08/15 07:59:53;;;;;;;44.23;40.97;;;25.40;74.20;;;;;;5088255;28;20457;-73
2021/08/15 08:02:20;;;;;;;44.63;41.70;;;25.40;74.20;;;;;;5088871;28;20460;-72
2021/08/15 08:04:50;;;;;;;41.43;38.73;;;25.50;73.90;;;;;;5084233;28;20481;-72
2021/08/15 08:07:19;;;;;;;42.70;39.90;;;25.60;73.60;;;;;;5086330;28;20481;-70
2021/08/15 08:09:46;;;;;;;40.40;37.80;;;25.70;73.20;;;;;;5082698;28;20460;-70
2021/08/15 08:12:13;;;;;;;42.87;39.87;;;25.90;73.30;;;;;;5082962;28;20483;-72
2021/08/15 08:14:40;;;;;;;42.80;39.67;;;26.10;73.20;;;;;;5083576;28;20445;-71
2021/08/15 08:17:08;;;;;;;43.33;40.63;;;26.30;71.80;;;;;;5082294;28;20474;-72
2021/08/15 08:19:35;;;;;;;43.30;40.50;;;26.30;71.20;;;;;;5069916;28;20545;-72
2021/08/15 08:22:03;;;;;;;43.00;40.20;;;26.30;71.10;;;;;;5080777;28;20467;-72
2021/08/15 08:24:30;;;;;;;42.93;40.03;;;26.30;71.60;;;;;;5081731;28;20473;-71
2021/08/15 08:26:57;;;;;;;42.80;39.90;;;26.50;71.60;;;;;;5084856;28;20523;-71
2021/08/15 08:29:24;;;;;;;44.90;42.00;;;26.50;71.60;;;;;;5083811;28;20461;-71
2021/08/15 08:31:51;;;;;;;43.00;40.20;;;26.50;71.30;;;;;;5080089;28;20458;-73
2021/08/15 08:34:19;;;;;;;43.87;40.87;;;26.50;71.40;;;;;;5087770;28;20963;-74
2021/08/15 08:36:45;;;;;;;43.40;40.40;;;26.60;71.20;;;;;;5088770;28;20588;-73
2021/08/15 08:39:14;;;;;;;41.50;38.90;;;26.70;71.30;;;;;;5075456;28;20548;-73
2021/08/15 08:41:41;;;;;;;43.30;40.40;;;26.90;70.80;;;;;;5079172;28;20562;-73
2021/08/15 08:44:08;;;;;;;42.00;39.20;;;27.00;70.60;;;;;;5085439;28;20535;-71
2021/08/15 08:46:36;;;;;;;45.77;42.47;;;27.10;70.50;;;;;;5087306;28;20461;-71
2021/08/15 08:49:04;;;;;;;44.63;41.23;;;27.20;70.40;;;;;;5083422;28;20458;-71
2021/08/15 08:51:31;;;;;;;45.00;41.90;;;27.20;69.70;;;;;;5076660;28;20819;-71
2021/08/15 08:53:59;;;;;;;41.50;38.70;;;27.20;69.50;;;;;;5088385;28;20453;-72
2021/08/15 08:56:29;;;;;;;43.10;40.20;;;27.20;69.70;;;;;;5084956;28;21252;-72
2021/08/15 08:58:56;;;;;;;42.57;39.77;;;27.30;69.60;;;;;;5077214;28;21003;-72
2021/08/15 09:01:22;;;;;;;43.37;40.20;;;27.40;69.20;;;;;;5083231;28;20458;-73
2021/08/15 09:03:49;;;;;;;43.07;40.27;;;27.50;68.80;;;;;;5086283;28;20456;-72
2021/08/15 09:06:21;;;;;;;43.90;40.97;;;27.30;69.10;;;;;;5079324;28;20468;-72
2021/08/15 09:08:49;;;;;;;43.00;40.20;;;27.20;69.50;;;;;;5087248;28;20480;-72
2021/08/15 09:11:18;;;;;;;43.53;40.40;;;27.30;69.40;;;;;;5084577;28;21424;-72
2021/08/15 09:14:00;;;;;;;43.57;40.60;;;27.50;69.10;;;;;;5088664;28;21163;-72
2021/08/15 09:16:26;;;;;;;42.63;39.63;;;27.60;68.60;;;;;;5091167;28;20572;-72
2021/08/15 09:18:53;;;;;;;44.83;41.73;;;27.70;68.20;;;;;;5093254;28;20451;-72
2021/08/15 09:21:29;;;;;;;43.90;41.20;;;27.60;68.30;;;;;;5087934;28;20468;-71
2021/08/15 09:24:00;;;;;;;43.53;40.83;;;27.80;68.20;;;;;;5091013;28;20463;-71
2021/08/15 09:26:27;;;;;;;43.67;40.70;;;27.80;68.10;;;;;;5080029;28;20491;-71
2021/08/15 09:28:56;;;;;;;42.53;39.63;;;27.80;68.30;;;;;;5093276;28;21022;-72
2021/08/15 09:31:28;;;;;;;44.60;41.70;;;27.80;68.30;;;;;;5089503;28;20449;-71
2021/08/15 09:33:58;;;;;;;45.00;41.77;;;27.90;67.80;;;;;;5090253;28;20453;-71
2021/08/15 09:36:29;;;;;;;44.07;41.17;;;27.90;67.80;;;;;;5083850;28;20568;-71
2021/08/15 09:38:58;;;;;;;43.60;40.60;;;27.90;67.90;;;;;;5083581;28;21028;-71
2021/08/15 09:41:27;;;;;;;44.40;41.50;;;28.10;67.40;;;;;;5082417;28;20458;-71
2021/08/15 09:44:26;;;;;;;43.80;40.77;;;28.20;67.50;;;;;;5091657;28;20457;-71
2021/08/15 09:47:01;;;;;;;45.53;42.03;;;28.40;66.90;;;;;;5006981;28;20960;-71
2021/08/15 09:49:36;;;;;;;44.60;41.77;;;28.50;66.80;;;;;;5070538;28;20565;-71
2021/08/15 09:52:04;;;;;;;44.67;41.57;;;28.60;66.20;;;;;;5084189;28;20527;-71
2021/08/15 09:54:31;;;;;;;42.23;39.33;;;28.60;66.20;;;;;;5081223;28;20504;-71
2021/08/15 09:56:59;;;;;;;46.37;43.37;;;28.70;66.00;;;;;;5089917;28;20473;-71
2021/08/15 09:59:34;;;;;;;42.50;39.70;;;28.80;65.90;;;;;;5086143;28;20446;-70
2021/08/15 10:02:01;;;;;;;43.80;40.87;;;28.70;65.90;;;;;;5087596;28;20977;-70
2021/08/15 10:04:28;;;;;;;44.63;41.37;;;28.80;66.10;;;;;;5084125;28;20450;-72
2021/08/15 10:06:56;;;;;;;42.10;39.30;;;28.90;65.50;;;;;;5078839;28;20484;-72
2021/08/15 10:09:25;;;;;;;40.90;38.00;;;28.90;65.80;;;;;;5081891;28;20471;-72
2021/08/15 10:11:53;;;;;;;41.60;38.97;;;29.00;65.10;;;;;;5087340;28;20453;-72
2021/08/15 10:14:20;;;;;;;40.10;37.57;;;29.10;65.40;;;;;;5083801;28;20545;-72
2021/08/15 10:16:53;;;;;;;44.33;41.53;;;29.20;65.10;;;;;;5087444;28;20555;-72
2021/08/15 10:19:29;;;;;;;44.60;41.47;;;29.20;64.60;;;;;;5075620;28;20947;-72
2021/08/15 10:21:57;;;;;;;40.50;38.00;;;29.30;64.50;;;;;;5087844;28;20464;-72
2021/08/15 10:24:24;;;;;;;43.53;40.63;;;29.40;64.70;;;;;;5088255;28;20462;-72
2021/08/15 10:26:52;;;;;;;41.10;38.30;;;29.50;64.10;;;;;;5082625;28;20477;-72
2021/08/15 10:29:35;;;;;;;42.23;39.33;;;29.70;64.00;;;;;;5090188;28;20458;-72
2021/08/15 10:32:23;;;;;;;40.83;38.03;;;30.10;63.00;;;;;;5084236;28;20530;-72
2021/08/15 10:35:15;;;;;;;45.10;42.07;;;30.40;62.60;;;;;;5081410;28;20506;-72
2021/08/15 10:37:54;;;;;;;39.00;36.40;;;30.60;62.30;;;;;;5074015;28;20469;-72
2021/08/15 10:40:47;;;;;;;40.73;38.07;;;30.70;61.80;;;;;;5085686;28;20460;-73
2021/08/15 10:43:17;;;;;;;42.27;39.63;;;30.80;61.90;;;;;;5079649;28;20461;-73
2021/08/15 10:45:44;;;;;;;41.27;38.63;;;30.80;61.90;;;;;;5082822;28;20469;-72
2021/08/15 10:48:25;;;;;;;42.73;39.77;;;30.90;62.00;;;;;;5088726;28;20564;-72
2021/08/15 10:50:55;;;;;;;41.03;38.30;;;31.10;61.00;;;;;;5080790;28;20470;-72
2021/08/15 10:53:38;;;;;;;44.30;41.20;;;31.20;61.30;;;;;;5090743;28;20449;-72
2021/08/15 10:56:07;;;;;;;42.27;39.17;;;31.30;61.20;;;;;;5085233;28;20528;-72
2021/08/15 10:58:38;;;;;;;42.13;39.43;;;31.30;60.70;;;;;;5089940;28;20576;-72
2021/08/15 11:01:06;;;;;;;43.30;40.17;;;31.20;60.60;;;;;;5084458;28;20464;-71
2021/08/15 11:03:51;;;;;;;41.20;38.57;;;31.30;60.00;;;;;;5091219;28;20546;-74
2021/08/15 11:06:41;;;;;;;42.33;39.33;;;31.20;60.00;;;;;;5088737;28;20476;-74
2021/08/15 11:09:10;;;;;;;41.80;38.73;;;31.00;61.40;;;;;;5088712;28;20461;-73
2021/08/15 11:11:57;;;;;;;40.33;37.27;;;30.70;61.50;;;;;;5083485;28;20469;-71
2021/08/15 11:14:27;;;;;;;40.83;38.17;;;30.70;60.60;;;;;;5082349;28;20477;-71
2021/08/15 11:17:10;;;;;;;43.40;40.70;;;30.30;61.30;;;;;;5067857;28;20465;-71
2021/08/15 11:19:39;;;;;;;40.70;37.90;;;30.30;61.70;;;;;;5068448;28;20469;-72
2021/08/15 11:22:10;;;;;;;39.73;37.13;;;30.50;61.50;;;;;;5067309;28;20484;-71
2021/08/15 11:24:39;;;;;;;41.77;38.80;;;30.70;60.70;;;;;;5067945;28;20473;-71
2021/08/15 11:27:07;;;;;;;40.80;38.00;;;30.90;60.60;;;;;;5069200;28;20481;-73
2021/08/15 11:29:36;;;;;;;41.67;38.87;;;30.90;60.50;;;;;;5076716;28;20468;-73
2021/08/15 11:32:05;;;;;;;40.93;38.13;;;30.80;60.10;;;;;;5077578;28;20450;-76
2021/08/15 11:34:32;;;;;;;43.73;40.93;;;30.60;60.50;;;;;;5068694;28;20465;-74
2021/08/15 11:37:01;;;;;;;39.17;36.60;;;30.40;61.50;;;;;;5074441;28;20527;-73
2021/08/15 11:39:30;;;;;;;44.20;41.30;;;30.20;61.60;;;;;;5069468;28;20461;-74
2021/08/15 11:41:58;;;;;;;40.70;37.57;;;30.10;62.30;;;;;;5066639;28;20484;-74
2021/08/15 11:44:25;;;;;;;39.50;37.00;;;30.10;62.10;;;;;;5068331;28;21417;-74
2021/08/15 11:46:51;;;;;;;40.50;37.40;;;30.00;62.40;;;;;;5069094;28;22985;-73
2021/08/15 11:49:35;;;;;;;42.20;39.30;;;29.80;62.90;;;;;;5065974;28;20465;-74
2021/08/15 11:52:17;;;;;;;40.10;37.40;;;29.80;63.50;;;;;;5069144;28;20461;-73
2021/08/15 11:54:44;;;;;;;40.63;37.93;;;29.40;64.30;;;;;;5068520;28;20453;-74
2021/08/15 11:57:16;;;;;;;44.53;41.23;;;29.20;64.70;;;;;;5067996;28;20477;-74
2021/08/15 11:59:45;;;;;;;45.20;42.40;;;29.20;64.90;;;;;;5070508;28;20464;-73
2021/08/15 12:02:19;;;;;;;40.37;37.77;;;29.20;65.10;;;;;;5070543;28;20454;-74
2021/08/15 12:04:51;;;;;;;43.80;40.67;;;29.20;65.30;;;;;;5070836;28;20457;-75
2021/08/15 12:07:23;;;;;;;44.63;41.20;;;29.20;65.90;;;;;;5069736;28;20851;-74
2021/08/15 12:10:24;;;;;;;43.60;40.40;;;29.20;66.50;;;;;;5070883;28;20464;-73
2021/08/15 12:13:19;;;;;;;44.53;41.10;;;29.20;66.00;;;;;;5078010;28;20464;-74
2021/08/15 12:15:49;;;;;;;43.63;40.70;;;29.20;66.50;;;;;;5077377;28;20540;-74
2021/08/15 12:18:37;;;;;;;39.53;36.80;;;29.10;67.20;;;;;;5085658;28;21215;-72
2021/08/15 12:21:18;;;;;;;41.10;38.40;;;29.10;67.20;;;;;;5080883;28;20935;-73
2021/08/15 12:24:13;;;;;;;42.10;39.03;;;29.00;67.80;;;;;;5082306;28;20968;-73
2021/08/15 12:26:43;;;;;;;41.30;38.70;;;29.00;67.20;;;;;;5084957;28;20836;-75
2021/08/15 12:29:17;;;;;;;45.47;42.37;;;29.00;67.80;;;;;;5083987;28;21027;-72
2021/08/15 12:31:45;;;;;;;42.20;39.30;;;28.80;68.20;;;;;;5081534;28;20460;-72
2021/08/15 12:34:17;;;;;;;43.30;40.03;;;28.70;69.50;;;;;;5080493;28;20544;-72
2021/08/15 12:36:47;;;;;;;46.10;42.30;;;28.50;71.80;;;;;;5070700;28;20464;-74